Time;durP1;ratioP1;P1;durP2;ratioP2;P2;SDS_P1;SDS_P2;PMS_P1;PMS_P2;Temp;Humidity;BMP_temperature;BMP_pressure;BME280_temperature;BME280_humidity;BME280_pressure;Samples;Min_cycle;Max_cycle;Signal;HPM_P1;HPM_P2
2023/05/05 00:02:28;;;;;;;9.37;9.07;;;11.70;99.90;;;;;;5165659;22;20212;-82
2023/05/05 00:04:55;;;;;;;9.50;9.20;;;11.50;99.90;;;;;;5141480;27;20228;-81
2023/05/05 00:07:23;;;;;;;9.30;9.00;;;11.40;99.90;;;;;;5145522;27;20232;-81
2023/05/05 00:09:50;;;;;;;9.53;9.23;;;11.40;99.90;;;;;;5154216;27;20226;-81
2023/05/05 00:12:18;;;;;;;9.00;8.77;;;11.40;99.90;;;;;;5152503;27;20296;-81
2023/05/05 00:14:45;;;;;;;9.33;9.03;;;11.30;99.90;;;;;;5127830;28;20241;-81
2023/05/05 00:17:13;;;;;;;9.30;9.00;;;11.30;99.90;;;;;;5123832;28;20260;-81
2023/05/05 00:19:42;;;;;;;9.70;9.40;;;11.30;99.90;;;;;;5133362;28;20232;-81
2023/05/05 00:22:10;;;;;;;9.80;9.50;;;11.40;99.90;;;;;;5128965;28;20260;-81
2023/05/05 00:24:38;;;;;;;9.87;9.57;;;11.30;99.90;;;;;;5119894;28;20308;-81
2023/05/05 00:27:05;;;;;;;9.50;9.20;;;11.30;99.90;;;;;;5119265;28;20261;-82
2023/05/05 00:29:33;;;;;;;9.40;9.10;;;11.30;99.90;;;;;;5118958;28;20229;-81
2023/05/05 00:32:00;;;;;;;9.43;9.13;;;11.30;99.90;;;;;;5119298;28;20230;-81
2023/05/05 00:34:28;;;;;;;9.40;9.10;;;11.30;99.90;;;;;;5108053;28;20261;-82
2023/05/05 00:36:57;;;;;;;9.40;9.10;;;11.20;99.90;;;;;;5082432;28;20246;-81
2023/05/05 00:39:24;;;;;;;9.20;8.90;;;11.20;99.90;;;;;;5080812;28;20265;-81
2023/05/05 00:41:52;;;;;;;9.40;9.10;;;11.10;99.90;;;;;;5080630;28;20746;-81
2023/05/05 00:44:36;;;;;;;9.80;9.50;;;11.10;99.90;;;;;;5082130;28;20321;-82
2023/05/05 00:47:04;;;;;;;9.70;9.40;;;11.00;99.90;;;;;;5085881;28;20254;-82
2023/05/05 00:49:31;;;;;;;10.00;9.70;;;11.00;99.90;;;;;;5096053;28;20230;-82
2023/05/05 00:52:01;;;;;;;9.20;8.90;;;10.90;99.90;;;;;;5083630;28;20242;-80
2023/05/05 00:54:28;;;;;;;9.57;9.27;;;10.90;99.90;;;;;;5084729;28;20230;-80
2023/05/05 00:56:56;;;;;;;9.60;9.30;;;10.90;99.90;;;;;;5083687;28;20245;-80
2023/05/05 00:59:23;;;;;;;9.50;9.20;;;10.90;99.90;;;;;;5082076;28;20332;-80
2023/05/05 01:01:51;;;;;;;9.60;9.30;;;10.90;99.90;;;;;;5082396;28;20317;-80
2023/05/05 01:04:18;;;;;;;9.30;9.00;;;10.90;99.90;;;;;;5081555;28;20294;-80
2023/05/05 01:06:55;;;;;;;9.20;8.90;;;10.80;99.90;;;;;;5082229;28;20230;-80
2023/05/05 01:09:34;;;;;;;9.20;8.90;;;10.80;99.90;;;;;;5084248;28;20317;-80
2023/05/05 01:12:17;;;;;;;9.20;8.90;;;10.90;99.90;;;;;;5084354;28;20325;-80
2023/05/05 01:14:54;;;;;;;8.80;8.60;;;10.80;99.90;;;;;;5083976;28;20225;-80
2023/05/05 01:17:28;;;;;;;9.10;8.87;;;10.80;99.90;;;;;;5091833;28;20386;-80
2023/05/05 01:20:09;;;;;;;9.20;8.90;;;10.70;99.90;;;;;;5102168;28;20221;-80
2023/05/05 01:22:42;;;;;;;9.20;8.90;;;10.70;99.90;;;;;;5101251;28;20289;-80
2023/05/05 01:25:49;;;;;;;9.27;8.97;;;10.70;99.90;;;;;;5102119;28;20412;-80
2023/05/05 01:28:34;;;;;;;9.30;9.00;;;10.70;99.90;;;;;;5092280;28;20233;-80
2023/05/05 01:31:21;;;;;;;9.30;9.00;;;10.70;99.90;;;;;;5101955;28;20268;-80
2023/05/05 01:34:00;;;;;;;8.87;8.67;;;10.60;99.90;;;;;;5102921;28;20241;-80
2023/05/05 01:36:37;;;;;;;9.30;9.00;;;10.60;99.90;;;;;;5102631;28;20233;-81
2023/05/05 01:39:06;;;;;;;8.80;8.60;;;10.60;99.90;;;;;;5101770;28;20213;-80
2023/05/05 01:41:42;;;;;;;9.00;8.80;;;10.60;99.90;;;;;;5101411;28;20256;-82
2023/05/05 01:44:11;;;;;;;9.00;8.80;;;10.60;99.90;;;;;;5101847;28;20229;-80
2023/05/05 01:46:39;;;;;;;9.00;8.80;;;10.50;99.90;;;;;;5103649;28;20222;-80
2023/05/05 01:49:10;;;;;;;8.80;8.60;;;10.50;99.90;;;;;;5101750;28;20239;-80
2023/05/05 01:51:39;;;;;;;8.87;8.67;;;10.50;99.90;;;;;;5100865;28;20234;-80
2023/05/05 01:54:09;;;;;;;8.90;8.70;;;10.50;99.90;;;;;;5101638;28;20332;-80
2023/05/05 01:56:40;;;;;;;8.80;8.60;;;10.50;99.90;;;;;;5102105;28;20285;-80
2023/05/05 01:59:09;;;;;;;8.80;8.60;;;10.50;99.90;;;;;;5101572;28;20240;-80
2023/05/05 02:01:40;;;;;;;9.00;8.80;;;10.40;99.90;;;;;;5107160;28;20257;-80
2023/05/05 02:04:10;;;;;;;8.93;8.73;;;10.40;99.90;;;;;;5102661;28;20242;-80
2023/05/05 02:06:39;;;;;;;9.30;9.00;;;10.40;99.90;;;;;;5103011;28;20232;-80
2023/05/05 02:09:08;;;;;;;9.30;9.00;;;10.40;99.90;;;;;;5102753;28;20321;-80
2023/05/05 02:11:36;;;;;;;9.00;8.80;;;10.30;99.90;;;;;;5100185;28;20256;-80
2023/05/05 02:14:05;;;;;;;8.80;8.60;;;10.30;99.90;;;;;;5086273;28;20249;-80
2023/05/05 02:16:34;;;;;;;8.80;8.60;;;10.30;99.90;;;;;;5080769;28;20233;-79
2023/05/05 02:19:04;;;;;;;8.90;8.70;;;10.20;99.90;;;;;;5080334;28;20238;-80
2023/05/05 02:21:33;;;;;;;8.80;8.60;;;10.20;99.90;;;;;;5080777;28;20226;-81
2023/05/05 02:24:01;;;;;;;9.00;8.80;;;10.20;99.90;;;;;;5080037;28;20238;-79
2023/05/05 02:26:33;;;;;;;8.50;8.30;;;10.20;99.90;;;;;;5080116;28;20223;-80
2023/05/05 02:29:06;;;;;;;8.60;8.40;;;10.10;99.90;;;;;;5083653;28;20715;-79
2023/05/05 02:31:39;;;;;;;8.80;8.60;;;10.10;99.90;;;;;;5078436;28;20238;-80
2023/05/05 02:34:08;;;;;;;8.70;8.50;;;10.10;99.90;;;;;;5078035;28;20342;-80
2023/05/05 02:36:39;;;;;;;8.77;8.57;;;10.10;99.90;;;;;;5080188;28;20233;-82
2023/05/05 02:39:13;;;;;;;9.00;8.80;;;10.00;99.90;;;;;;5080178;28;20317;-80
2023/05/05 02:41:43;;;;;;;8.53;8.33;;;10.00;99.90;;;;;;5079466;28;20230;-80
2023/05/05 02:44:14;;;;;;;8.67;8.47;;;9.90;99.90;;;;;;5081325;28;20296;-80
2023/05/05 02:46:42;;;;;;;8.87;8.67;;;9.90;99.90;;;;;;5081008;28;20282;-80
2023/05/05 02:49:10;;;;;;;8.80;8.60;;;9.90;99.90;;;;;;5080002;28;20321;-81
2023/05/05 02:51:39;;;;;;;8.80;8.60;;;10.00;99.90;;;;;;5079653;28;20328;-80
2023/05/05 02:54:06;;;;;;;8.90;8.70;;;9.90;99.90;;;;;;5078915;28;20234;-80
2023/05/05 02:56:42;;;;;;;8.30;8.10;;;10.00;99.90;;;;;;5079372;28;20222;-80
2023/05/05 02:59:15;;;;;;;8.10;7.90;;;10.00;99.90;;;;;;5079162;28;20253;-80
2023/05/05 03:01:57;;;;;;;8.40;8.20;;;10.00;99.90;;;;;;5079314;28;20230;-81
2023/05/05 03:04:30;;;;;;;8.50;8.30;;;10.00;99.90;;;;;;5084110;28;20282;-80
2023/05/05 03:07:09;;;;;;;8.17;7.97;;;10.00;99.90;;;;;;5094158;28;20229;-80
2023/05/05 03:09:43;;;;;;;8.20;8.00;;;10.00;99.90;;;;;;5081445;28;20241;-80
2023/05/05 03:12:19;;;;;;;8.30;8.10;;;10.00;99.90;;;;;;5080463;28;20274;-81
2023/05/05 03:14:48;;;;;;;8.40;8.20;;;10.00;99.90;;;;;;5080254;28;20214;-81
2023/05/05 03:17:18;;;;;;;8.20;8.00;;;9.90;99.90;;;;;;5079402;28;20230;-80
2023/05/05 03:19:47;;;;;;;8.33;8.13;;;9.90;99.90;;;;;;5079516;28;20258;-80
2023/05/05 03:22:16;;;;;;;8.50;8.30;;;9.80;99.90;;;;;;5079289;28;20265;-80
2023/05/05 03:24:43;;;;;;;8.70;8.50;;;9.80;99.90;;;;;;5079258;28;20268;-81
2023/05/05 03:27:11;;;;;;;8.50;8.30;;;9.80;99.90;;;;;;5079366;28;20233;-80
2023/05/05 03:29:38;;;;;;;8.50;8.30;;;9.80;99.90;;;;;;5079188;28;20230;-80
2023/05/05 03:32:08;;;;;;;8.50;8.30;;;9.70;99.90;;;;;;5079298;28;20238;-80
2023/05/05 03:34:36;;;;;;;9.43;9.13;;;9.70;99.90;;;;;;5079135;28;20230;-80
2023/05/05 03:37:04;;;;;;;9.00;8.80;;;9.70;99.90;;;;;;5079433;28;20280;-81
2023/05/05 03:39:33;;;;;;;9.30;9.00;;;9.70;99.90;;;;;;5078557;28;20226;-81
2023/05/05 03:42:00;;;;;;;9.37;9.07;;;9.70;99.90;;;;;;5078279;28;20230;-81
2023/05/05 03:44:28;;;;;;;9.70;9.40;;;9.70;99.90;;;;;;5078360;28;20234;-81
2023/05/05 03:46:55;;;;;;;9.70;9.40;;;9.70;99.90;;;;;;5078217;28;20317;-81
2023/05/05 03:49:22;;;;;;;9.80;9.50;;;9.70;99.90;;;;;;5078511;28;20235;-80
2023/05/05 03:51:50;;;;;;;9.50;9.20;;;9.70;99.90;;;;;;5078252;28;20234;-80
2023/05/05 03:54:17;;;;;;;9.60;9.30;;;9.70;99.90;;;;;;5078003;28;20246;-81
2023/05/05 03:56:46;;;;;;;9.40;9.10;;;9.80;99.90;;;;;;5078378;28;20230;-81
2023/05/05 03:59:14;;;;;;;9.33;9.03;;;9.80;99.90;;;;;;5081657;28;20237;-81
2023/05/05 04:01:43;;;;;;;9.23;8.93;;;9.80;99.90;;;;;;5081773;28;20320;-81
2023/05/05 04:04:11;;;;;;;9.10;8.90;;;9.80;99.90;;;;;;5081505;28;20242;-81
2023/05/05 04:06:38;;;;;;;8.80;8.60;;;9.80;99.90;;;;;;5081322;28;20230;-81
2023/05/05 04:09:06;;;;;;;9.07;8.87;;;9.90;99.90;;;;;;5080719;28;20230;-81
2023/05/05 04:11:33;;;;;;;9.00;8.80;;;9.90;99.90;;;;;;5081186;28;20325;-81
2023/05/05 04:14:02;;;;;;;9.00;8.80;;;9.90;99.90;;;;;;5081428;28;20333;-81
2023/05/05 04:16:30;;;;;;;9.10;8.83;;;9.90;99.90;;;;;;5081473;28;20321;-81
2023/05/05 04:18:58;;;;;;;9.07;8.87;;;10.00;99.90;;;;;;5081993;28;20230;-81
2023/05/05 04:21:25;;;;;;;9.20;8.90;;;10.00;99.90;;;;;;5081578;28;20269;-80
2023/05/05 04:23:53;;;;;;;9.30;9.00;;;10.00;99.90;;;;;;5083665;28;20314;-81
2023/05/05 04:26:20;;;;;;;9.37;9.07;;;10.10;99.90;;;;;;5081273;28;20218;-81
2023/05/05 04:28:48;;;;;;;9.07;8.83;;;10.10;99.90;;;;;;5081134;28;20620;-81
2023/05/05 04:31:17;;;;;;;8.90;8.70;;;10.10;99.90;;;;;;5081670;28;20321;-81
2023/05/05 04:33:44;;;;;;;9.30;9.00;;;10.10;99.90;;;;;;5082621;28;20321;-81
2023/05/05 04:36:12;;;;;;;9.30;9.00;;;10.20;99.90;;;;;;5082439;28;20318;-81
2023/05/05 04:38:39;;;;;;;9.30;9.00;;;10.20;99.90;;;;;;5082890;28;20240;-81
2023/05/05 04:41:07;;;;;;;9.20;8.90;;;10.20;99.90;;;;;;5081617;28;20289;-81
2023/05/05 04:43:34;;;;;;;9.10;8.83;;;10.20;99.90;;;;;;5081770;28;20241;-82
2023/05/05 04:46:02;;;;;;;9.30;9.00;;;10.20;99.90;;;;;;5084148;28;20222;-81
2023/05/05 04:48:30;;;;;;;9.50;9.20;;;10.20;99.90;;;;;;5085180;28;20237;-81
2023/05/05 04:50:58;;;;;;;9.30;9.00;;;10.20;99.90;;;;;;5084128;28;20244;-81
2023/05/05 04:53:25;;;;;;;9.30;9.00;;;10.30;99.90;;;;;;5088807;28;20258;-81
2023/05/05 04:55:53;;;;;;;9.60;9.30;;;10.30;99.90;;;;;;5092859;28;20226;-81
2023/05/05 04:58:21;;;;;;;9.70;9.40;;;10.40;99.90;;;;;;5093688;28;20280;-81
2023/05/05 05:00:48;;;;;;;9.73;9.43;;;10.40;99.90;;;;;;5087834;28;20237;-81
2023/05/05 05:03:16;;;;;;;9.70;9.40;;;10.60;99.90;;;;;;5083322;28;20246;-81
2023/05/05 05:05:45;;;;;;;9.60;9.30;;;10.70;99.90;;;;;;5082987;28;20232;-81
2023/05/05 05:08:12;;;;;;;9.60;9.30;;;10.80;99.90;;;;;;5082564;28;20313;-81
2023/05/05 05:10:40;;;;;;;9.77;9.47;;;10.80;99.90;;;;;;5081545;28;20313;-81
2023/05/05 05:13:07;;;;;;;9.70;9.40;;;10.90;99.90;;;;;;5082390;28;20241;-81
2023/05/05 05:15:36;;;;;;;9.73;9.43;;;11.00;99.90;;;;;;5083423;28;20226;-81
2023/05/05 05:18:04;;;;;;;9.70;9.40;;;11.10;99.90;;;;;;5084400;28;20233;-81
2023/05/05 05:20:33;;;;;;;9.83;9.53;;;11.10;99.90;;;;;;5088046;28;20265;-81
2023/05/05 05:23:03;;;;;;;9.50;9.20;;;11.20;99.90;;;;;;5092770;28;20226;-81
2023/05/05 05:25:30;;;;;;;9.80;9.50;;;11.30;99.90;;;;;;5084828;28;20288;-81
2023/05/05 05:27:58;;;;;;;9.67;9.37;;;11.40;99.90;;;;;;5084129;28;20290;-82
2023/05/05 05:30:26;;;;;;;9.80;9.50;;;11.50;99.90;;;;;;5083129;28;20258;-82
2023/05/05 05:32:53;;;;;;;9.87;9.57;;;11.70;99.90;;;;;;5082208;28;20237;-81
2023/05/05 05:35:21;;;;;;;10.00;9.70;;;11.70;99.90;;;;;;5080735;28;20497;-79
2023/05/05 05:37:50;;;;;;;9.90;9.60;;;11.60;99.90;;;;;;5081960;28;20272;-80
2023/05/05 05:40:20;;;;;;;9.73;9.43;;;11.60;99.90;;;;;;5089446;28;20236;-79
2023/05/05 05:42:47;;;;;;;10.03;9.73;;;11.60;99.90;;;;;;5081459;28;20327;-79
2023/05/05 05:45:15;;;;;;;9.77;9.47;;;11.50;99.90;;;;;;5080114;28;20344;-79
2023/05/05 05:47:42;;;;;;;9.50;9.20;;;11.60;99.90;;;;;;5079734;28;20318;-80
2023/05/05 05:50:10;;;;;;;9.33;9.03;;;11.60;99.90;;;;;;5078101;28;20226;-80
2023/05/05 05:52:38;;;;;;;9.57;9.27;;;11.70;99.90;;;;;;5078628;28;20284;-81
2023/05/05 05:55:07;;;;;;;9.50;9.20;;;11.80;99.90;;;;;;5079663;28;20260;-79
2023/05/05 05:57:36;;;;;;;9.70;9.40;;;11.90;99.90;;;;;;5081180;28;20222;-79
2023/05/05 06:00:05;;;;;;;9.60;9.30;;;12.00;99.90;;;;;;5080097;28;20249;-79
2023/05/05 06:02:32;;;;;;;9.60;9.30;;;12.10;99.90;;;;;;5081011;28;20265;-79
2023/05/05 06:05:00;;;;;;;9.63;9.33;;;12.20;99.90;;;;;;5080578;28;20222;-79
2023/05/05 06:07:27;;;;;;;9.60;9.30;;;12.40;99.90;;;;;;5075055;28;20221;-79
2023/05/05 06:09:55;;;;;;;9.77;9.47;;;12.50;99.90;;;;;;5075287;28;20237;-79
2023/05/05 06:12:22;;;;;;;9.70;9.40;;;12.60;99.90;;;;;;5080560;28;20308;-79
2023/05/05 06:14:51;;;;;;;9.60;9.30;;;12.70;99.90;;;;;;5077411;28;20242;-79
2023/05/05 06:17:19;;;;;;;9.70;9.40;;;12.80;99.90;;;;;;5077502;28;20237;-80
2023/05/05 06:19:46;;;;;;;9.50;9.20;;;12.90;99.90;;;;;;5077273;28;20236;-79
2023/05/05 06:22:14;;;;;;;9.43;9.13;;;13.00;99.90;;;;;;5078826;28;20234;-82
2023/05/05 06:24:41;;;;;;;9.37;9.07;;;13.00;99.90;;;;;;5081327;28;20216;-79
2023/05/05 06:27:08;;;;;;;9.20;8.90;;;13.00;99.90;;;;;;5081163;28;20297;-79
2023/05/05 06:29:36;;;;;;;9.47;9.17;;;13.10;99.90;;;;;;5080664;28;20229;-81
2023/05/05 06:32:07;;;;;;;9.63;9.33;;;13.20;99.90;;;;;;5078661;28;20236;-79
2023/05/05 06:34:34;;;;;;;9.73;9.43;;;13.30;99.90;;;;;;5080203;28;20260;-79
2023/05/05 06:37:02;;;;;;;9.60;9.30;;;13.40;99.90;;;;;;5078981;28;20238;-80
2023/05/05 06:39:29;;;;;;;9.80;9.50;;;13.50;99.90;;;;;;5085263;28;20234;-80
2023/05/05 06:41:57;;;;;;;9.67;9.37;;;13.70;99.90;;;;;;5092388;28;20232;-79
2023/05/05 07:04:17;;;;;;;9.80;9.50;;;14.60;99.90;;;;;;5118102;27;20315;-85
2023/05/05 07:07:12;;;;;;;9.85;9.55;;;14.80;99.90;;;;;;5127525;27;20304;-84
2023/05/05 07:19:25;;;;;;;10.60;10.30;;;15.40;99.90;;;;;;5096295;27;20202;-82
2023/05/05 07:22:27;;;;;;;10.30;10.00;;;15.60;99.90;;;;;;5135985;28;20230;-83
2023/05/05 07:24:57;;;;;;;10.10;9.80;;;15.80;99.90;;;;;;5121206;27;20293;-82
2023/05/05 07:27:32;;;;;;;10.27;9.98;;;16.00;99.90;;;;;;5120881;28;20255;-81
2023/05/05 07:30:44;;;;;;;10.30;10.00;;;16.10;99.90;;;;;;5120131;28;20232;-80
2023/05/05 07:33:14;;;;;;;10.20;9.90;;;16.30;99.90;;;;;;5119935;27;20293;-81
2023/05/05 07:35:53;;;;;;;9.98;9.68;;;16.40;99.90;;;;;;5122556;28;20251;-83
2023/05/05 07:38:45;;;;;;;9.82;9.52;;;16.60;99.90;;;;;;5123343;28;20224;-81
2023/05/05 07:41:18;;;;;;;9.63;9.32;;;16.70;99.90;;;;;;5122510;27;20228;-82
2023/05/05 07:44:12;;;;;;;10.38;10.07;;;16.80;99.90;;;;;;5121552;27;20247;-79
2023/05/05 07:50:51;;;;;;;10.20;9.90;;;17.10;99.90;;;;;;5069180;28;20231;-84
2023/05/05 08:04:47;;;;;;;;;;;;;;;;;;;;;
2023/05/05 08:14:47;;;;;;;;;;;;;;;;;;;;;
2023/05/05 08:17:57;;;;;;;10.75;10.45;;;18.60;99.90;;;;;;5048878;28;20222;-83
2023/05/05 08:23:12;;;;;;;10.63;10.32;;;18.90;99.90;;;;;;5127521;28;20225;-84
2023/05/05 08:29:17;;;;;;;10.80;10.50;;;19.30;99.90;;;;;;5118868;27;20232;-85
2023/05/05 08:31:52;;;;;;;10.80;10.50;;;19.40;99.90;;;;;;5119482;27;20228;-84
2023/05/05 08:34:42;;;;;;;10.35;10.05;;;19.50;99.90;;;;;;5120354;28;20236;-85
2023/05/05 09:00:41;;;;;;;10.60;10.30;;;20.60;99.90;;;;;;5079778;28;20210;-84
2023/05/05 10:52:53;;;;;;;10.85;10.55;;;26.30;99.90;;;;;;4803292;29;20235;-83
2023/05/05 10:55:52;;;;;;;10.80;10.50;;;26.50;99.90;;;;;;4956067;28;20324;-79
2023/05/05 10:58:35;;;;;;;10.75;10.45;;;27.00;99.90;;;;;;4989779;28;20244;-80
2023/05/05 11:01:03;;;;;;;10.85;10.55;;;27.10;99.90;;;;;;5141460;27;20323;-79
2023/05/05 11:03:32;;;;;;;11.15;10.85;;;27.40;99.90;;;;;;5140935;27;20333;-80
2023/05/05 11:06:12;;;;;;;10.68;10.38;;;27.30;99.90;;;;;;5141670;27;20266;-80
2023/05/05 11:09:35;;;;;;;10.95;10.65;;;28.00;99.90;;;;;;5148726;27;20243;-83
2023/05/05 11:12:05;;;;;;;10.88;10.57;;;28.30;99.90;;;;;;5160352;27;20228;-84
2023/05/05 11:14:33;;;;;;;10.60;10.30;;;27.60;99.90;;;;;;5159195;27;20228;-79
2023/05/05 11:17:01;;;;;;;10.68;10.38;;;27.20;99.90;;;;;;5154392;27;20250;-79
2023/05/05 11:19:47;;;;;;;10.93;10.63;;;27.10;99.90;;;;;;5150355;27;20246;-79
2023/05/05 11:22:16;;;;;;;10.75;10.45;;;26.70;99.90;;;;;;5142913;27;20256;-80
2023/05/05 11:28:15;;;;;;;10.60;10.30;;;26.40;99.90;;;;;;5138663;27;20224;-84
2023/05/05 11:31:19;;;;;;;10.50;10.20;;;26.10;99.90;;;;;;5135250;27;20227;-84
2023/05/05 11:33:53;;;;;;;10.57;10.27;;;26.20;99.90;;;;;;5143936;27;20262;-81
2023/05/05 11:36:45;;;;;;;10.55;10.25;;;26.30;99.90;;;;;;5161631;27;20228;-79
2023/05/05 11:39:29;;;;;;;10.40;10.10;;;26.40;99.90;;;;;;5160508;27;20216;-79
2023/05/05 11:42:26;;;;;;;10.60;10.30;;;26.20;99.90;;;;;;5153201;27;20228;-81
2023/05/05 11:44:54;;;;;;;10.20;9.90;;;26.00;99.90;;;;;;5153011;27;20235;-80
2023/05/05 11:47:34;;;;;;;10.43;10.13;;;25.90;99.90;;;;;;5143511;27;20251;-80
2023/05/05 11:50:21;;;;;;;10.80;10.50;;;25.40;99.90;;;;;;5149462;27;20228;-80
2023/05/05 11:52:49;;;;;;;10.20;9.90;;;24.80;99.90;;;;;;5145210;27;20329;-81
2023/05/05 11:55:29;;;;;;;10.50;10.20;;;24.70;99.90;;;;;;5148510;27;20330;-81
2023/05/05 11:58:03;;;;;;;10.50;10.20;;;24.50;99.90;;;;;;5140381;27;20228;-85
2023/05/05 12:00:36;;;;;;;10.07;9.77;;;24.10;99.90;;;;;;5140953;27;20239;-84
2023/05/05 12:03:06;;;;;;;10.40;10.10;;;23.90;99.90;;;;;;5142619;27;20247;-81
2023/05/05 12:05:35;;;;;;;10.07;9.77;;;23.70;99.90;;;;;;5148193;27;20236;-83
2023/05/05 12:08:50;;;;;;;10.30;10.00;;;23.40;99.90;;;;;;5140586;27;20322;-82
2023/05/05 12:25:44;;;;;;;9.90;9.60;;;23.50;99.90;;;;;;4995939;28;20244;-81
2023/05/05 12:28:46;;;;;;;9.80;9.50;;;23.50;99.90;;;;;;5144064;27;20338;-82
2023/05/05 12:31:40;;;;;;;9.63;9.32;;;23.50;99.90;;;;;;5140179;27;20743;-82
2023/05/05 12:34:25;;;;;;;9.90;9.60;;;23.60;99.90;;;;;;5139533;27;20232;-81
2023/05/05 12:37:18;;;;;;;10.38;10.07;;;23.70;99.90;;;;;;5140987;27;20301;-81
2023/05/05 12:40:18;;;;;;;10.00;9.70;;;23.90;99.90;;;;;;5140330;27;20319;-81
2023/05/05 12:43:06;;;;;;;10.20;9.90;;;23.90;99.90;;;;;;5140233;27;20235;-81
2023/05/05 12:45:34;;;;;;;10.40;10.10;;;23.80;99.90;;;;;;5142576;22;20236;-81
2023/05/05 12:48:28;;;;;;;10.30;10.00;;;23.80;99.90;;;;;;5125458;28;20216;-82
2023/05/05 12:51:02;;;;;;;10.30;10.00;;;23.70;99.90;;;;;;5127103;28;20228;-83
2023/05/05 12:53:35;;;;;;;10.15;9.85;;;23.60;99.90;;;;;;5127676;28;20232;-85
2023/05/05 12:56:03;;;;;;;10.40;10.10;;;23.50;99.90;;;;;;5126268;28;20312;-82
2023/05/05 12:58:47;;;;;;;10.10;9.80;;;23.20;99.90;;;;;;5125476;27;20224;-82
2023/05/05 13:01:14;;;;;;;10.20;9.90;;;23.10;99.90;;;;;;5123415;28;20239;-81
2023/05/05 13:03:43;;;;;;;10.35;10.05;;;23.00;99.90;;;;;;5123819;27;20224;-82
2023/05/05 13:06:29;;;;;;;10.10;9.80;;;23.00;99.90;;;;;;5125464;27;20233;-84
2023/05/05 13:08:56;;;;;;;10.05;9.75;;;23.20;99.90;;;;;;5124612;28;20228;-82
2023/05/05 13:11:29;;;;;;;9.70;9.40;;;23.30;99.90;;;;;;5122964;28;20252;-85
2023/05/05 13:13:56;;;;;;;9.60;9.30;;;23.50;99.90;;;;;;5125290;28;20229;-83
2023/05/05 13:16:24;;;;;;;9.60;9.30;;;23.50;99.90;;;;;;5123427;28;20252;-82
2023/05/05 13:18:54;;;;;;;9.57;9.27;;;23.40;99.90;;;;;;5128551;27;20229;-86
2023/05/05 13:21:22;;;;;;;9.50;9.20;;;23.30;99.90;;;;;;5128912;28;20224;-84
2023/05/05 13:23:53;;;;;;;9.65;9.35;;;23.10;99.90;;;;;;5124800;27;20271;-86
2023/05/05 13:26:20;;;;;;;9.90;9.60;;;23.10;99.90;;;;;;5124939;28;20224;-83
2023/05/05 13:28:48;;;;;;;9.90;9.60;;;23.10;99.90;;;;;;5122572;27;20268;-85
2023/05/05 13:31:15;;;;;;;9.68;9.38;;;23.10;99.90;;;;;;5123212;28;20294;-82
2023/05/05 13:33:43;;;;;;;10.05;9.75;;;22.90;99.90;;;;;;5122764;27;21160;-83
2023/05/05 13:36:12;;;;;;;10.13;9.82;;;22.60;99.90;;;;;;5122155;28;20228;-83
2023/05/05 13:38:40;;;;;;;10.20;9.90;;;22.70;99.90;;;;;;5122568;28;20286;-84
2023/05/05 13:41:08;;;;;;;10.55;10.25;;;22.60;99.90;;;;;;5123142;27;20261;-84
2023/05/05 13:43:35;;;;;;;10.60;10.30;;;22.60;99.90;;;;;;5139059;27;20229;-83
2023/05/05 13:46:10;;;;;;;10.45;10.15;;;22.50;99.90;;;;;;5131854;27;20257;-84
2023/05/05 13:48:38;;;;;;;10.50;10.20;;;22.30;99.90;;;;;;5119265;28;20301;-83
2023/05/05 13:51:06;;;;;;;10.40;10.10;;;22.10;99.90;;;;;;5123231;28;20237;-83
2023/05/05 13:53:40;;;;;;;10.45;10.15;;;22.20;99.90;;;;;;5126728;28;20239;-83
2023/05/05 13:56:09;;;;;;;10.48;10.18;;;22.20;99.90;;;;;;5125095;28;20225;-84
2023/05/05 13:58:37;;;;;;;10.07;9.77;;;22.10;99.90;;;;;;5121742;27;20233;-84
2023/05/05 14:01:06;;;;;;;10.40;10.10;;;22.20;99.90;;;;;;5121198;27;20224;-84
2023/05/05 14:03:33;;;;;;;10.50;10.20;;;22.30;99.90;;;;;;5121796;27;20228;-84
2023/05/05 14:06:01;;;;;;;10.40;10.10;;;22.40;99.90;;;;;;5119397;28;20237;-85
2023/05/05 14:08:31;;;;;;;10.38;10.07;;;22.40;99.90;;;;;;5120412;28;20251;-86
2023/05/05 14:11:05;;;;;;;9.90;9.60;;;22.10;99.90;;;;;;5122247;28;20228;-87
2023/05/05 14:13:33;;;;;;;10.10;9.80;;;22.00;99.90;;;;;;5121848;28;20308;-86
2023/05/05 14:16:02;;;;;;;9.75;9.45;;;22.00;99.90;;;;;;5121611;27;20237;-88
2023/05/05 14:18:30;;;;;;;10.10;9.80;;;22.00;99.90;;;;;;5120705;28;20232;-83
2023/05/05 14:20:57;;;;;;;9.77;9.48;;;22.00;99.90;;;;;;5122018;27;20232;-85
2023/05/05 14:23:25;;;;;;;10.00;9.70;;;21.80;99.90;;;;;;5123109;27;20217;-84
2023/05/05 14:25:53;;;;;;;9.88;9.57;;;21.70;99.90;;;;;;5111706;28;20243;-85
2023/05/05 14:28:23;;;;;;;9.60;9.30;;;21.60;99.90;;;;;;5120517;27;20236;-85
2023/05/05 14:30:52;;;;;;;9.60;9.30;;;21.30;99.90;;;;;;5128052;27;20296;-84
2023/05/05 14:33:23;;;;;;;10.43;10.13;;;21.30;99.90;;;;;;5126599;27;20266;-85
2023/05/05 14:35:52;;;;;;;10.30;10.00;;;21.00;99.90;;;;;;5125979;28;20267;-86
2023/05/05 14:38:21;;;;;;;9.70;9.40;;;20.90;99.90;;;;;;5122719;28;20291;-83
2023/05/05 14:40:49;;;;;;;9.70;9.40;;;20.80;99.90;;;;;;5117294;28;20248;-85
2023/05/05 14:43:17;;;;;;;9.48;9.18;;;20.80;99.90;;;;;;5126551;27;20985;-85
2023/05/05 14:45:46;;;;;;;9.55;9.25;;;20.80;99.90;;;;;;5121917;27;20240;-84
2023/05/05 14:48:14;;;;;;;9.82;9.52;;;20.90;99.90;;;;;;5113030;28;20221;-84
2023/05/05 14:50:45;;;;;;;9.90;9.60;;;21.10;99.90;;;;;;5113671;28;20233;-85
2023/05/05 14:53:12;;;;;;;10.15;9.85;;;21.20;99.90;;;;;;5109315;28;20229;-83
2023/05/05 14:55:40;;;;;;;9.95;9.65;;;21.30;99.90;;;;;;5108952;28;20237;-84
2023/05/05 14:58:07;;;;;;;10.10;9.80;;;21.50;99.90;;;;;;5108466;28;20261;-84
2023/05/05 15:00:35;;;;;;;10.10;9.80;;;21.70;99.90;;;;;;5107841;28;20275;-83
2023/05/05 15:03:04;;;;;;;9.40;9.10;;;21.70;99.90;;;;;;5108938;28;20229;-84
2023/05/05 15:05:32;;;;;;;9.70;9.40;;;21.80;99.90;;;;;;5107904;28;20320;-84
2023/05/05 15:07:59;;;;;;;9.45;9.15;;;22.00;99.90;;;;;;5109169;28;20218;-84
2023/05/05 15:10:27;;;;;;;9.23;8.93;;;22.10;99.90;;;;;;5108764;28;20245;-84
2023/05/05 15:12:55;;;;;;;9.50;9.20;;;22.10;99.90;;;;;;5108002;28;20265;-84
2023/05/05 15:15:23;;;;;;;9.50;9.20;;;22.20;99.90;;;;;;5108203;28;20248;-84
2023/05/05 15:17:53;;;;;;;9.63;9.32;;;22.30;99.90;;;;;;5106880;28;20217;-83
2023/05/05 15:20:22;;;;;;;9.98;9.68;;;22.40;99.90;;;;;;5106679;28;20324;-84
2023/05/05 15:22:50;;;;;;;9.95;9.65;;;22.60;99.90;;;;;;5109238;28;20237;-84
2023/05/05 15:25:18;;;;;;;9.80;9.50;;;22.60;99.90;;;;;;5107315;28;20357;-84
2023/05/05 15:27:46;;;;;;;9.93;9.63;;;22.70;99.90;;;;;;5107310;28;20409;-84
2023/05/05 15:30:15;;;;;;;9.57;9.27;;;22.80;99.90;;;;;;5107709;28;20276;-83
2023/05/05 15:32:43;;;;;;;10.00;9.70;;;22.80;99.90;;;;;;5107038;28;20252;-83
2023/05/05 15:35:10;;;;;;;9.80;9.50;;;22.80;99.90;;;;;;5107134;28;20652;-83
2023/05/05 15:37:42;;;;;;;9.55;9.25;;;22.70;99.90;;;;;;5108208;28;20275;-84
2023/05/05 15:40:13;;;;;;;9.70;9.40;;;22.60;99.90;;;;;;5108068;28;20212;-84
2023/05/05 15:42:41;;;;;;;9.18;8.98;;;22.50;99.90;;;;;;5107764;28;20255;-84
2023/05/05 15:45:13;;;;;;;9.50;9.20;;;22.40;99.90;;;;;;5106184;28;20238;-81
2023/05/05 15:47:41;;;;;;;9.70;9.40;;;22.30;99.90;;;;;;5105633;28;20233;-82
2023/05/05 15:50:09;;;;;;;9.40;9.10;;;22.20;99.90;;;;;;5103877;28;20244;-81
2023/05/05 15:52:37;;;;;;;9.80;9.50;;;22.00;99.90;;;;;;5104039;28;20237;-81
2023/05/05 15:55:08;;;;;;;9.77;9.48;;;21.90;99.90;;;;;;5105020;28;20316;-81
2023/05/05 15:57:38;;;;;;;9.68;9.38;;;21.80;99.90;;;;;;5104410;28;20273;-81
2023/05/05 16:00:08;;;;;;;9.70;9.40;;;21.70;99.90;;;;;;5109590;28;20276;-81
2023/05/05 16:02:35;;;;;;;9.98;9.68;;;21.40;99.90;;;;;;5123841;28;20240;-83
2023/05/05 16:05:03;;;;;;;9.85;9.55;;;21.30;99.90;;;;;;5119916;27;20225;-79
2023/05/05 16:07:30;;;;;;;9.70;9.40;;;21.30;99.90;;;;;;5123898;28;20224;-79
2023/05/05 16:09:58;;;;;;;9.85;9.55;;;21.20;99.90;;;;;;5125098;28;20233;-80
2023/05/05 16:12:27;;;;;;;9.70;9.40;;;21.20;99.90;;;;;;5128630;28;20237;-81
2023/05/05 16:14:54;;;;;;;10.10;9.80;;;21.20;99.90;;;;;;5133505;27;20241;-80
2023/05/05 16:17:22;;;;;;;9.98;9.68;;;21.00;99.90;;;;;;5127401;28;20231;-82
2023/05/05 16:19:49;;;;;;;10.10;9.80;;;20.80;99.90;;;;;;5135379;28;20310;-82
2023/05/05 16:22:17;;;;;;;10.18;9.88;;;20.80;99.90;;;;;;5134742;27;20305;-83
2023/05/05 16:24:45;;;;;;;9.93;9.63;;;20.60;99.90;;;;;;5133896;27;20274;-83
2023/05/05 16:27:13;;;;;;;10.10;9.80;;;20.60;99.90;;;;;;5126076;27;20221;-84
2023/05/05 16:29:42;;;;;;;9.85;9.55;;;20.60;99.90;;;;;;5125117;27;20288;-81
2023/05/05 16:32:10;;;;;;;10.27;9.98;;;20.40;99.90;;;;;;5125273;27;20229;-83
2023/05/05 16:34:37;;;;;;;10.10;9.80;;;20.40;99.90;;;;;;5128095;28;20343;-81
2023/05/05 16:37:05;;;;;;;10.00;9.70;;;20.40;99.90;;;;;;5130382;27;20251;-81
2023/05/05 16:39:34;;;;;;;9.65;9.35;;;20.40;99.90;;;;;;5129619;28;20231;-83